sensor_id;sensor_type;location;lat;lon;timestamp;temperature;humidity
4725;DHT22;2376;53.544;10.226;2023-05-23T00:01:08;18.00;99.90
4725;DHT22;2376;53.544;10.226;2023-05-23T00:03:35;18.00;99.90
4725;DHT22;2376;53.544;10.226;2023-05-23T00:06:05;18.00;99.90
4725;DHT22;2376;53.544;10.226;2023-05-23T00:08:32;18.00;99.90
4725;DHT22;2376;53.544;10.226;2023-05-23T00:10:59;18.00;99.90
4725;DHT22;2376;53.544;10.226;2023-05-23T00:13:41;18.10;99.90
4725;DHT22;2376;53.544;10.226;2023-05-23T00:16:08;18.10;99.90
4725;DHT22;2376;53.544;10.226;2023-05-23T00:18:34;18.10;99.90
4725;DHT22;2376;53.544;10.226;2023-05-23T00:21:01;18.10;99.90
4725;DHT22;2376;53.544;10.226;2023-05-23T00:23:28;18.10;99.90
4725;DHT22;2376;53.544;10.226;2023-05-23T00:25:55;18.00;99.90
4725;DHT22;2376;53.544;10.226;2023-05-23T00:28:23;18.00;99.90
4725;DHT22;2376;53.544;10.226;2023-05-23T00:30:51;18.00;99.90
4725;DHT22;2376;53.544;10.226;2023-05-23T00:33:18;18.00;99.90
4725;DHT22;2376;53.544;10.226;2023-05-23T00:35:46;18.00;99.90
4725;DHT22;2376;53.544;10.226;2023-05-23T00:38:13;18.00;99.90
4725;DHT22;2376;53.544;10.226;2023-05-23T00:40:40;18.00;99.90
4725;DHT22;2376;53.544;10.226;2023-05-23T00:43:06;17.90;99.90
4725;DHT22;2376;53.544;10.226;2023-05-23T00:45:33;17.90;99.90
4725;DHT22;2376;53.544;10.226;2023-05-23T00:48:02;17.90;99.90
4725;DHT22;2376;53.544;10.226;2023-05-23T00:50:30;17.90;99.90
4725;DHT22;2376;53.544;10.226;2023-05-23T00:52:59;17.90;99.90
4725;DHT22;2376;53.544;10.226;2023-05-23T00:55:27;17.80;99.90
4725;DHT22;2376;53.544;10.226;2023-05-23T00:57:54;17.80;99.90
4725;DHT22;2376;53.544;10.226;2023-05-23T01:00:22;17.80;99.90
4725;DHT22;2376;53.544;10.226;2023-05-23T01:02:50;17.80;99.90
4725;DHT22;2376;53.544;10.226;2023-05-23T01:05:19;17.80;99.90
4725;DHT22;2376;53.544;10.226;2023-05-23T01:07:47;17.70;99.90
4725;DHT22;2376;53.544;10.226;2023-05-23T01:10:14;17.70;99.90
4725;DHT22;2376;53.544;10.226;2023-05-23T01:12:51;17.70;99.90
4725;DHT22;2376;53.544;10.226;2023-05-23T01:15:25;17.70;99.90
4725;DHT22;2376;53.544;10.226;2023-05-23T01:17:59;17.70;99.90
4725;DHT22;2376;53.544;10.226;2023-05-23T01:20:33;17.70;99.90
4725;DHT22;2376;53.544;10.226;2023-05-23T01:26:12;17.60;99.90
4725;DHT22;2376;53.544;10.226;2023-05-23T01:28:44;17.60;99.90
4725;DHT22;2376;53.544;10.226;2023-05-23T01:31:12;17.50;99.90
4725;DHT22;2376;53.544;10.226;2023-05-23T01:33:40;17.00;99.90
4725;DHT22;2376;53.544;10.226;2023-05-23T01:36:07;16.70;99.90
4725;DHT22;2376;53.544;10.226;2023-05-23T01:38:34;16.80;99.90
4725;DHT22;2376;53.544;10.226;2023-05-23T01:41:01;16.90;99.90
4725;DHT22;2376;53.544;10.226;2023-05-23T01:43:27;17.00;99.90
4725;DHT22;2376;53.544;10.226;2023-05-23T01:45:56;17.00;99.90
4725;DHT22;2376;53.544;10.226;2023-05-23T01:48:25;17.00;99.90
4725;DHT22;2376;53.544;10.226;2023-05-23T01:50:53;17.00;99.90
4725;DHT22;2376;53.544;10.226;2023-05-23T01:53:22;17.00;99.90
4725;DHT22;2376;53.544;10.226;2023-05-23T01:55:49;16.90;99.90
4725;DHT22;2376;53.544;10.226;2023-05-23T01:58:16;16.80;99.90
4725;DHT22;2376;53.544;10.226;2023-05-23T02:00:43;17.00;99.90
4725;DHT22;2376;53.544;10.226;2023-05-23T02:03:11;17.00;99.90
4725;DHT22;2376;53.544;10.226;2023-05-23T02:05:38;17.10;99.90
4725;DHT22;2376;53.544;10.226;2023-05-23T02:08:05;17.10;99.90
4725;DHT22;2376;53.544;10.226;2023-05-23T02:10:31;17.10;99.90
4725;DHT22;2376;53.544;10.226;2023-05-23T02:12:58;17.20;99.90
4725;DHT22;2376;53.544;10.226;2023-05-23T02:15:25;17.30;99.90
4725;DHT22;2376;53.544;10.226;2023-05-23T02:17:51;17.30;99.90
4725;DHT22;2376;53.544;10.226;2023-05-23T02:20:19;17.40;99.90
4725;DHT22;2376;53.544;10.226;2023-05-23T02:22:46;17.40;99.90
4725;DHT22;2376;53.544;10.226;2023-05-23T02:25:13;17.40;99.90
4725;DHT22;2376;53.544;10.226;2023-05-23T02:27:40;17.40;99.90
4725;DHT22;2376;53.544;10.226;2023-05-23T02:30:07;17.50;99.90
4725;DHT22;2376;53.544;10.226;2023-05-23T02:32:34;17.40;99.90
4725;DHT22;2376;53.544;10.226;2023-05-23T02:35:02;17.40;99.90
4725;DHT22;2376;53.544;10.226;2023-05-23T02:37:30;17.40;99.90
4725;DHT22;2376;53.544;10.226;2023-05-23T02:39:56;17.40;99.90
4725;DHT22;2376;53.544;10.226;2023-05-23T02:42:23;17.30;99.90
4725;DHT22;2376;53.544;10.226;2023-05-23T02:44:50;17.30;99.90
4725;DHT22;2376;53.544;10.226;2023-05-23T02:47:16;17.30;99.90
4725;DHT22;2376;53.544;10.226;2023-05-23T02:49:43;17.30;99.90
4725;DHT22;2376;53.544;10.226;2023-05-23T02:52:09;17.20;99.90
4725;DHT22;2376;53.544;10.226;2023-05-23T02:54:37;17.20;99.90
4725;DHT22;2376;53.544;10.226;2023-05-23T02:57:04;17.20;99.90
4725;DHT22;2376;53.544;10.226;2023-05-23T02:59:31;17.10;99.90
4725;DHT22;2376;53.544;10.226;2023-05-23T03:01:58;17.10;99.90
4725;DHT22;2376;53.544;10.226;2023-05-23T03:04:25;17.00;99.90
4725;DHT22;2376;53.544;10.226;2023-05-23T03:06:52;17.00;99.90
4725;DHT22;2376;53.544;10.226;2023-05-23T03:09:19;17.00;99.90
4725;DHT22;2376;53.544;10.226;2023-05-23T03:11:47;17.00;99.90
4725;DHT22;2376;53.544;10.226;2023-05-23T03:14:14;17.00;99.90
4725;DHT22;2376;53.544;10.226;2023-05-23T03:16:40;16.90;99.90
4725;DHT22;2376;53.544;10.226;2023-05-23T03:19:07;16.70;99.90
4725;DHT22;2376;53.544;10.226;2023-05-23T03:21:34;16.70;99.90
4725;DHT22;2376;53.544;10.226;2023-05-23T03:24:01;16.80;99.90
4725;DHT22;2376;53.544;10.226;2023-05-23T03:26:27;16.80;99.90
4725;DHT22;2376;53.544;10.226;2023-05-23T03:28:56;16.90;99.90
4725;DHT22;2376;53.544;10.226;2023-05-23T03:31:22;16.90;99.90
4725;DHT22;2376;53.544;10.226;2023-05-23T03:33:49;16.80;99.90
4725;DHT22;2376;53.544;10.226;2023-05-23T03:36:16;16.90;99.90
4725;DHT22;2376;53.544;10.226;2023-05-23T03:38:43;16.80;99.90
4725;DHT22;2376;53.544;10.226;2023-05-23T03:41:09;16.80;99.90
4725;DHT22;2376;53.544;10.226;2023-05-23T03:43:36;16.90;99.90
4725;DHT22;2376;53.544;10.226;2023-05-23T03:46:04;16.90;99.90
4725;DHT22;2376;53.544;10.226;2023-05-23T03:48:31;16.80;99.90
4725;DHT22;2376;53.544;10.226;2023-05-23T03:50:57;16.80;99.90
4725;DHT22;2376;53.544;10.226;2023-05-23T03:53:24;16.80;99.90
4725;DHT22;2376;53.544;10.226;2023-05-23T03:55:51;16.70;99.90
4725;DHT22;2376;53.544;10.226;2023-05-23T03:58:18;16.70;99.90
4725;DHT22;2376;53.544;10.226;2023-05-23T04:00:45;16.70;99.90
4725;DHT22;2376;53.544;10.226;2023-05-23T04:03:13;16.70;99.90
4725;DHT22;2376;53.544;10.226;2023-05-23T04:05:41;16.70;99.90
4725;DHT22;2376;53.544;10.226;2023-05-23T04:08:08;16.70;99.90
4725;DHT22;2376;53.544;10.226;2023-05-23T04:10:35;16.70;99.90
4725;DHT22;2376;53.544;10.226;2023-05-23T04:13:01;16.70;99.90
4725;DHT22;2376;53.544;10.226;2023-05-23T04:15:28;16.60;99.90
4725;DHT22;2376;53.544;10.226;2023-05-23T04:17:55;16.70;99.90
4725;DHT22;2376;53.544;10.226;2023-05-23T04:20:23;16.70;99.90
4725;DHT22;2376;53.544;10.226;2023-05-23T04:22:50;16.60;99.90
4725;DHT22;2376;53.544;10.226;2023-05-23T04:25:17;16.60;99.90
4725;DHT22;2376;53.544;10.226;2023-05-23T04:27:44;16.60;99.90
4725;DHT22;2376;53.544;10.226;2023-05-23T04:30:12;16.50;99.90
4725;DHT22;2376;53.544;10.226;2023-05-23T04:32:40;16.50;99.90
4725;DHT22;2376;53.544;10.226;2023-05-23T04:35:08;16.50;99.90
4725;DHT22;2376;53.544;10.226;2023-05-23T04:37:36;16.50;99.90
4725;DHT22;2376;53.544;10.226;2023-05-23T04:40:04;16.50;99.90
4725;DHT22;2376;53.544;10.226;2023-05-23T04:42:31;16.50;99.90
4725;DHT22;2376;53.544;10.226;2023-05-23T04:44:58;16.50;99.90
4725;DHT22;2376;53.544;10.226;2023-05-23T04:47:26;16.40;99.90
4725;DHT22;2376;53.544;10.226;2023-05-23T04:49:53;16.40;99.90
4725;DHT22;2376;53.544;10.226;2023-05-23T04:52:21;16.30;99.90
4725;DHT22;2376;53.544;10.226;2023-05-23T04:54:49;16.30;99.90
4725;DHT22;2376;53.544;10.226;2023-05-23T04:57:18;16.20;99.90
4725;DHT22;2376;53.544;10.226;2023-05-23T04:59:45;16.20;99.90
4725;DHT22;2376;53.544;10.226;2023-05-23T05:02:11;16.10;99.90
4725;DHT22;2376;53.544;10.226;2023-05-23T05:04:38;16.10;99.90
4725;DHT22;2376;53.544;10.226;2023-05-23T05:07:05;16.10;99.90
4725;DHT22;2376;53.544;10.226;2023-05-23T05:09:32;16.10;99.90
4725;DHT22;2376;53.544;10.226;2023-05-23T05:12:00;16.00;99.90
4725;DHT22;2376;53.544;10.226;2023-05-23T05:14:26;16.00;99.90
4725;DHT22;2376;53.544;10.226;2023-05-23T05:16:53;16.00;99.90
4725;DHT22;2376;53.544;10.226;2023-05-23T05:19:22;15.90;99.90
4725;DHT22;2376;53.544;10.226;2023-05-23T05:21:48;15.90;99.90
4725;DHT22;2376;53.544;10.226;2023-05-23T05:24:15;15.90;99.90
4725;DHT22;2376;53.544;10.226;2023-05-23T05:26:42;15.90;99.90
4725;DHT22;2376;53.544;10.226;2023-05-23T05:29:10;15.80;99.90
4725;DHT22;2376;53.544;10.226;2023-05-23T05:31:37;15.90;99.90
4725;DHT22;2376;53.544;10.226;2023-05-23T05:34:05;15.90;99.90
4725;DHT22;2376;53.544;10.226;2023-05-23T05:36:32;16.00;99.90
4725;DHT22;2376;53.544;10.226;2023-05-23T05:38:58;15.90;99.90
4725;DHT22;2376;53.544;10.226;2023-05-23T05:41:25;16.00;99.90
4725;DHT22;2376;53.544;10.226;2023-05-23T05:43:52;15.90;99.90
4725;DHT22;2376;53.544;10.226;2023-05-23T05:46:20;15.90;99.90
4725;DHT22;2376;53.544;10.226;2023-05-23T05:48:46;15.90;99.90
4725;DHT22;2376;53.544;10.226;2023-05-23T05:51:13;15.90;99.90
4725;DHT22;2376;53.544;10.226;2023-05-23T05:53:40;15.90;99.90
4725;DHT22;2376;53.544;10.226;2023-05-23T05:56:07;16.00;99.90
4725;DHT22;2376;53.544;10.226;2023-05-23T05:58:34;16.00;99.90
4725;DHT22;2376;53.544;10.226;2023-05-23T06:01:01;16.00;99.90
4725;DHT22;2376;53.544;10.226;2023-05-23T06:03:29;16.00;99.90
4725;DHT22;2376;53.544;10.226;2023-05-23T06:05:56;15.90;99.90
4725;DHT22;2376;53.544;10.226;2023-05-23T06:08:24;16.00;99.90
4725;DHT22;2376;53.544;10.226;2023-05-23T06:10:51;15.90;99.90
4725;DHT22;2376;53.544;10.226;2023-05-23T06:13:17;15.80;99.90
4725;DHT22;2376;53.544;10.226;2023-05-23T06:15:44;15.90;99.90
4725;DHT22;2376;53.544;10.226;2023-05-23T06:18:11;16.00;99.90
4725;DHT22;2376;53.544;10.226;2023-05-23T06:20:39;15.90;99.90
4725;DHT22;2376;53.544;10.226;2023-05-23T06:23:06;16.00;99.90
4725;DHT22;2376;53.544;10.226;2023-05-23T06:25:33;16.00;99.90
4725;DHT22;2376;53.544;10.226;2023-05-23T06:28:00;16.00;99.90
4725;DHT22;2376;53.544;10.226;2023-05-23T06:30:26;16.00;99.90
4725;DHT22;2376;53.544;10.226;2023-05-23T06:32:54;15.80;99.90
4725;DHT22;2376;53.544;10.226;2023-05-23T06:35:20;15.70;99.90
4725;DHT22;2376;53.544;10.226;2023-05-23T06:37:48;15.70;99.90
4725;DHT22;2376;53.544;10.226;2023-05-23T06:40:15;15.60;99.90
4725;DHT22;2376;53.544;10.226;2023-05-23T06:42:41;15.50;99.90
4725;DHT22;2376;53.544;10.226;2023-05-23T06:45:09;15.60;99.90
4725;DHT22;2376;53.544;10.226;2023-05-23T06:47:36;15.50;99.90
4725;DHT22;2376;53.544;10.226;2023-05-23T06:50:03;15.40;99.90
4725;DHT22;2376;53.544;10.226;2023-05-23T06:52:29;15.40;99.90
4725;DHT22;2376;53.544;10.226;2023-05-23T06:54:57;15.40;99.90
4725;DHT22;2376;53.544;10.226;2023-05-23T06:57:24;15.50;99.90
4725;DHT22;2376;53.544;10.226;2023-05-23T06:59:50;15.50;99.90
4725;DHT22;2376;53.544;10.226;2023-05-23T07:02:17;15.40;99.90
4725;DHT22;2376;53.544;10.226;2023-05-23T07:04:44;15.40;99.90
4725;DHT22;2376;53.544;10.226;2023-05-23T07:07:10;15.50;99.90
4725;DHT22;2376;53.544;10.226;2023-05-23T07:09:37;15.60;99.90
4725;DHT22;2376;53.544;10.226;2023-05-23T07:12:05;15.40;99.90
4725;DHT22;2376;53.544;10.226;2023-05-23T07:14:32;15.30;99.90
4725;DHT22;2376;53.544;10.226;2023-05-23T07:17:00;15.40;99.90
4725;DHT22;2376;53.544;10.226;2023-05-23T07:19:26;15.40;99.90
4725;DHT22;2376;53.544;10.226;2023-05-23T07:21:53;15.50;99.90
4725;DHT22;2376;53.544;10.226;2023-05-23T07:24:20;15.40;99.90
4725;DHT22;2376;53.544;10.226;2023-05-23T07:26:46;15.20;99.90
4725;DHT22;2376;53.544;10.226;2023-05-23T07:29:14;15.20;99.90
4725;DHT22;2376;53.544;10.226;2023-05-23T07:31:41;15.30;99.90
4725;DHT22;2376;53.544;10.226;2023-05-23T07:34:07;15.20;99.90
4725;DHT22;2376;53.544;10.226;2023-05-23T07:36:34;15.30;99.90
4725;DHT22;2376;53.544;10.226;2023-05-23T07:39:02;15.30;99.90
4725;DHT22;2376;53.544;10.226;2023-05-23T07:41:29;15.10;99.90
4725;DHT22;2376;53.544;10.226;2023-05-23T07:43:55;15.10;99.90
4725;DHT22;2376;53.544;10.226;2023-05-23T07:46:23;15.20;99.90
4725;DHT22;2376;53.544;10.226;2023-05-23T07:48:50;15.20;99.90
4725;DHT22;2376;53.544;10.226;2023-05-23T07:51:17;15.30;99.90
4725;DHT22;2376;53.544;10.226;2023-05-23T07:53:45;15.30;99.90
4725;DHT22;2376;53.544;10.226;2023-05-23T07:56:12;15.20;99.90
4725;DHT22;2376;53.544;10.226;2023-05-23T07:58:39;15.30;99.90
4725;DHT22;2376;53.544;10.226;2023-05-23T08:01:05;15.40;99.90
4725;DHT22;2376;53.544;10.226;2023-05-23T08:03:33;15.20;99.90
4725;DHT22;2376;53.544;10.226;2023-05-23T08:06:00;15.20;99.90
4725;DHT22;2376;53.544;10.226;2023-05-23T08:08:27;15.40;99.90
4725;DHT22;2376;53.544;10.226;2023-05-23T08:10:53;15.60;99.90
4725;DHT22;2376;53.544;10.226;2023-05-23T08:13:20;15.40;99.90
4725;DHT22;2376;53.544;10.226;2023-05-23T08:15:46;15.30;99.90
4725;DHT22;2376;53.544;10.226;2023-05-23T08:18:13;15.30;99.90
4725;DHT22;2376;53.544;10.226;2023-05-23T08:20:41;15.40;99.90
4725;DHT22;2376;53.544;10.226;2023-05-23T08:23:08;15.30;99.90
4725;DHT22;2376;53.544;10.226;2023-05-23T08:25:36;15.40;99.90
4725;DHT22;2376;53.544;10.226;2023-05-23T08:28:03;15.40;99.90
4725;DHT22;2376;53.544;10.226;2023-05-23T08:30:30;15.20;99.90
4725;DHT22;2376;53.544;10.226;2023-05-23T08:32:59;15.10;99.90
4725;DHT22;2376;53.544;10.226;2023-05-23T08:35:29;15.30;99.90
4725;DHT22;2376;53.544;10.226;2023-05-23T08:38:01;15.50;99.90
4725;DHT22;2376;53.544;10.226;2023-05-23T08:40:29;15.40;99.90
4725;DHT22;2376;53.544;10.226;2023-05-23T08:42:56;15.20;99.90
4725;DHT22;2376;53.544;10.226;2023-05-23T08:45:23;15.40;99.90
4725;DHT22;2376;53.544;10.226;2023-05-23T08:47:51;15.30;99.90
4725;DHT22;2376;53.544;10.226;2023-05-23T08:50:18;15.40;99.90
4725;DHT22;2376;53.544;10.226;2023-05-23T08:52:49;15.50;99.90
4725;DHT22;2376;53.544;10.226;2023-05-23T08:55:22;15.50;99.90
4725;DHT22;2376;53.544;10.226;2023-05-23T08:57:49;15.50;99.90
4725;DHT22;2376;53.544;10.226;2023-05-23T09:00:16;15.50;99.90
4725;DHT22;2376;53.544;10.226;2023-05-23T09:02:45;15.60;99.90
4725;DHT22;2376;53.544;10.226;2023-05-23T09:05:12;15.50;99.90
4725;DHT22;2376;53.544;10.226;2023-05-23T09:07:39;15.60;99.90
4725;DHT22;2376;53.544;10.226;2023-05-23T09:10:08;15.60;99.90
4725;DHT22;2376;53.544;10.226;2023-05-23T09:12:37;15.60;99.90
4725;DHT22;2376;53.544;10.226;2023-05-23T09:15:04;15.70;99.90
4725;DHT22;2376;53.544;10.226;2023-05-23T09:17:31;15.90;99.90
4725;DHT22;2376;53.544;10.226;2023-05-23T09:19:58;15.80;99.90
4725;DHT22;2376;53.544;10.226;2023-05-23T09:22:25;15.70;99.90
4725;DHT22;2376;53.544;10.226;2023-05-23T09:24:54;15.70;99.90
4725;DHT22;2376;53.544;10.226;2023-05-23T09:27:21;15.40;99.90
4725;DHT22;2376;53.544;10.226;2023-05-23T09:29:49;15.20;99.90
4725;DHT22;2376;53.544;10.226;2023-05-23T09:32:18;15.30;99.90
4725;DHT22;2376;53.544;10.226;2023-05-23T09:34:55;15.20;99.90
4725;DHT22;2376;53.544;10.226;2023-05-23T09:37:28;14.90;99.90
4725;DHT22;2376;53.544;10.226;2023-05-23T09:39:55;15.00;99.90
4725;DHT22;2376;53.544;10.226;2023-05-23T09:42:22;15.10;99.90
4725;DHT22;2376;53.544;10.226;2023-05-23T09:44:50;14.90;99.90
4725;DHT22;2376;53.544;10.226;2023-05-23T09:47:17;14.90;99.90
4725;DHT22;2376;53.544;10.226;2023-05-23T09:49:45;14.90;99.90
4725;DHT22;2376;53.544;10.226;2023-05-23T09:52:11;14.70;99.90
4725;DHT22;2376;53.544;10.226;2023-05-23T09:54:38;14.80;99.90
4725;DHT22;2376;53.544;10.226;2023-05-23T09:57:08;14.70;99.90
4725;DHT22;2376;53.544;10.226;2023-05-23T09:59:38;14.50;99.90
4725;DHT22;2376;53.544;10.226;2023-05-23T10:02:10;14.30;99.90
4725;DHT22;2376;53.544;10.226;2023-05-23T10:04:38;14.20;99.90
4725;DHT22;2376;53.544;10.226;2023-05-23T10:07:11;14.20;99.90
4725;DHT22;2376;53.544;10.226;2023-05-23T10:09:41;14.10;99.90
4725;DHT22;2376;53.544;10.226;2023-05-23T10:12:35;14.20;99.90
4725;DHT22;2376;53.544;10.226;2023-05-23T10:15:03;14.00;99.90
4725;DHT22;2376;53.544;10.226;2023-05-23T10:17:38;13.80;99.90
4725;DHT22;2376;53.544;10.226;2023-05-23T10:20:09;13.90;99.90
4725;DHT22;2376;53.544;10.226;2023-05-23T10:22:37;13.70;99.90
4725;DHT22;2376;53.544;10.226;2023-05-23T10:25:05;13.60;99.90
4725;DHT22;2376;53.544;10.226;2023-05-23T10:27:33;13.90;99.90
4725;DHT22;2376;53.544;10.226;2023-05-23T10:29:59;14.00;99.90
4725;DHT22;2376;53.544;10.226;2023-05-23T10:32:27;14.10;99.90
4725;DHT22;2376;53.544;10.226;2023-05-23T10:35:00;14.10;99.90
4725;DHT22;2376;53.544;10.226;2023-05-23T10:37:34;14.10;99.90
4725;DHT22;2376;53.544;10.226;2023-05-23T10:40:04;13.90;99.90
4725;DHT22;2376;53.544;10.226;2023-05-23T10:42:41;13.90;99.90
4725;DHT22;2376;53.544;10.226;2023-05-23T10:45:14;13.90;99.90
4725;DHT22;2376;53.544;10.226;2023-05-23T10:47:41;13.90;99.90
4725;DHT22;2376;53.544;10.226;2023-05-23T10:50:13;14.00;99.90
4725;DHT22;2376;53.544;10.226;2023-05-23T10:52:40;13.90;99.90
4725;DHT22;2376;53.544;10.226;2023-05-23T10:55:12;14.00;99.90
4725;DHT22;2376;53.544;10.226;2023-05-23T10:57:39;13.90;99.90
4725;DHT22;2376;53.544;10.226;2023-05-23T11:00:12;13.90;99.90
4725;DHT22;2376;53.544;10.226;2023-05-23T11:02:46;14.10;99.90
4725;DHT22;2376;53.544;10.226;2023-05-23T11:05:20;14.20;99.90
4725;DHT22;2376;53.544;10.226;2023-05-23T11:08:06;13.90;99.90
4725;DHT22;2376;53.544;10.226;2023-05-23T11:10:50;13.90;99.90
4725;DHT22;2376;53.544;10.226;2023-05-23T11:13:18;13.70;99.90
4725;DHT22;2376;53.544;10.226;2023-05-23T11:15:46;13.70;99.90
4725;DHT22;2376;53.544;10.226;2023-05-23T11:18:19;13.60;99.90
4725;DHT22;2376;53.544;10.226;2023-05-23T11:20:49;13.80;99.90
4725;DHT22;2376;53.544;10.226;2023-05-23T11:23:17;13.60;99.90
4725;DHT22;2376;53.544;10.226;2023-05-23T11:25:45;13.60;99.90
4725;DHT22;2376;53.544;10.226;2023-05-23T11:28:13;13.60;99.90
4725;DHT22;2376;53.544;10.226;2023-05-23T11:30:40;13.60;99.90
4725;DHT22;2376;53.544;10.226;2023-05-23T11:33:08;13.40;99.90
4725;DHT22;2376;53.544;10.226;2023-05-23T11:35:39;13.30;99.90
4725;DHT22;2376;53.544;10.226;2023-05-23T11:38:07;13.50;99.90
4725;DHT22;2376;53.544;10.226;2023-05-23T11:40:35;13.60;99.90
4725;DHT22;2376;53.544;10.226;2023-05-23T11:43:03;13.70;99.90
4725;DHT22;2376;53.544;10.226;2023-05-23T11:45:30;13.90;99.90
4725;DHT22;2376;53.544;10.226;2023-05-23T11:47:57;14.00;99.90
4725;DHT22;2376;53.544;10.226;2023-05-23T11:50:24;14.10;99.90
4725;DHT22;2376;53.544;10.226;2023-05-23T11:52:51;14.00;99.90
4725;DHT22;2376;53.544;10.226;2023-05-23T11:55:21;14.20;99.90
4725;DHT22;2376;53.544;10.226;2023-05-23T11:57:48;14.40;99.90
4725;DHT22;2376;53.544;10.226;2023-05-23T12:00:16;14.60;99.90
4725;DHT22;2376;53.544;10.226;2023-05-23T12:02:44;14.80;99.90
4725;DHT22;2376;53.544;10.226;2023-05-23T12:05:13;14.80;99.90
4725;DHT22;2376;53.544;10.226;2023-05-23T12:07:40;14.80;99.90
4725;DHT22;2376;53.544;10.226;2023-05-23T12:10:08;14.80;99.90
4725;DHT22;2376;53.544;10.226;2023-05-23T12:12:36;14.90;99.90
4725;DHT22;2376;53.544;10.226;2023-05-23T12:15:04;15.00;99.90
4725;DHT22;2376;53.544;10.226;2023-05-23T12:17:30;14.90;99.90
4725;DHT22;2376;53.544;10.226;2023-05-23T12:19:58;15.10;99.90
4725;DHT22;2376;53.544;10.226;2023-05-23T12:22:25;15.30;99.90
4725;DHT22;2376;53.544;10.226;2023-05-23T12:24:52;15.30;99.90
4725;DHT22;2376;53.544;10.226;2023-05-23T12:27:26;15.20;99.90
4725;DHT22;2376;53.544;10.226;2023-05-23T12:30:03;15.40;99.90
4725;DHT22;2376;53.544;10.226;2023-05-23T12:32:30;15.40;99.90
4725;DHT22;2376;53.544;10.226;2023-05-23T12:34:57;15.40;99.90
4725;DHT22;2376;53.544;10.226;2023-05-23T12:37:24;15.70;99.90
4725;DHT22;2376;53.544;10.226;2023-05-23T12:39:51;15.70;99.90
4725;DHT22;2376;53.544;10.226;2023-05-23T12:42:17;15.60;99.90
4725;DHT22;2376;53.544;10.226;2023-05-23T12:44:44;15.70;99.90
4725;DHT22;2376;53.544;10.226;2023-05-23T12:47:14;15.70;99.90
4725;DHT22;2376;53.544;10.226;2023-05-23T12:49:40;15.70;99.90
4725;DHT22;2376;53.544;10.226;2023-05-23T12:52:09;15.60;99.90
4725;DHT22;2376;53.544;10.226;2023-05-23T12:54:36;15.80;99.90
4725;DHT22;2376;53.544;10.226;2023-05-23T12:57:02;15.90;99.90
4725;DHT22;2376;53.544;10.226;2023-05-23T12:59:29;16.10;99.90
4725;DHT22;2376;53.544;10.226;2023-05-23T13:01:56;16.30;99.90
4725;DHT22;2376;53.544;10.226;2023-05-23T13:04:25;16.30;99.90
4725;DHT22;2376;53.544;10.226;2023-05-23T13:06:52;16.40;99.90
4725;DHT22;2376;53.544;10.226;2023-05-23T13:09:19;16.50;99.90
4725;DHT22;2376;53.544;10.226;2023-05-23T13:11:45;16.60;99.90
4725;DHT22;2376;53.544;10.226;2023-05-23T13:14:12;16.50;99.90
4725;DHT22;2376;53.544;10.226;2023-05-23T13:16:39;16.70;99.90
4725;DHT22;2376;53.544;10.226;2023-05-23T13:19:05;16.50;99.90
4725;DHT22;2376;53.544;10.226;2023-05-23T13:21:33;16.40;99.90
4725;DHT22;2376;53.544;10.226;2023-05-23T13:24:00;16.50;99.90
4725;DHT22;2376;53.544;10.226;2023-05-23T13:26:26;16.50;99.90
4725;DHT22;2376;53.544;10.226;2023-05-23T13:28:53;16.50;99.90
4725;DHT22;2376;53.544;10.226;2023-05-23T13:31:20;16.40;99.90
4725;DHT22;2376;53.544;10.226;2023-05-23T13:33:47;16.50;99.90
4725;DHT22;2376;53.544;10.226;2023-05-23T13:36:13;16.40;99.90
4725;DHT22;2376;53.544;10.226;2023-05-23T13:38:41;16.10;99.90
4725;DHT22;2376;53.544;10.226;2023-05-23T13:41:08;15.90;99.90
4725;DHT22;2376;53.544;10.226;2023-05-23T13:43:35;16.10;99.90
4725;DHT22;2376;53.544;10.226;2023-05-23T13:46:01;16.10;99.90
4725;DHT22;2376;53.544;10.226;2023-05-23T13:48:28;15.80;99.90
4725;DHT22;2376;53.544;10.226;2023-05-23T13:50:55;15.90;99.90
4725;DHT22;2376;53.544;10.226;2023-05-23T13:53:22;15.80;99.90
4725;DHT22;2376;53.544;10.226;2023-05-23T13:55:50;15.80;99.90
4725;DHT22;2376;53.544;10.226;2023-05-23T13:58:16;15.90;99.90
4725;DHT22;2376;53.544;10.226;2023-05-23T14:00:43;16.00;99.90
4725;DHT22;2376;53.544;10.226;2023-05-23T14:03:10;16.10;99.90
4725;DHT22;2376;53.544;10.226;2023-05-23T14:05:37;15.70;99.90
4725;DHT22;2376;53.544;10.226;2023-05-23T14:08:04;15.90;99.90
4725;DHT22;2376;53.544;10.226;2023-05-23T14:10:31;15.90;99.90
4725;DHT22;2376;53.544;10.226;2023-05-23T14:13:00;16.10;99.90
4725;DHT22;2376;53.544;10.226;2023-05-23T14:15:27;16.10;99.90
4725;DHT22;2376;53.544;10.226;2023-05-23T14:17:54;16.30;99.90
4725;DHT22;2376;53.544;10.226;2023-05-23T14:20:21;16.60;99.90
4725;DHT22;2376;53.544;10.226;2023-05-23T14:22:48;16.60;99.90
4725;DHT22;2376;53.544;10.226;2023-05-23T14:25:14;16.60;99.90
4725;DHT22;2376;53.544;10.226;2023-05-23T14:27:41;16.70;99.90
4725;DHT22;2376;53.544;10.226;2023-05-23T14:30:10;16.90;99.90
4725;DHT22;2376;53.544;10.226;2023-05-23T14:32:37;16.90;99.90
4725;DHT22;2376;53.544;10.226;2023-05-23T14:35:04;17.00;99.90
4725;DHT22;2376;53.544;10.226;2023-05-23T14:37:31;16.90;99.90
4725;DHT22;2376;53.544;10.226;2023-05-23T14:39:58;16.60;98.20
4725;DHT22;2376;53.544;10.226;2023-05-23T14:42:25;16.60;99.90
4725;DHT22;2376;53.544;10.226;2023-05-23T14:44:52;16.60;99.90
4725;DHT22;2376;53.544;10.226;2023-05-23T14:47:20;16.50;99.90
4725;DHT22;2376;53.544;10.226;2023-05-23T14:49:47;16.60;99.90
4725;DHT22;2376;53.544;10.226;2023-05-23T14:52:15;16.50;99.90
4725;DHT22;2376;53.544;10.226;2023-05-23T14:54:41;16.40;99.80
4725;DHT22;2376;53.544;10.226;2023-05-23T14:57:09;16.30;99.90
4725;DHT22;2376;53.544;10.226;2023-05-23T14:59:35;16.20;99.90
4725;DHT22;2376;53.544;10.226;2023-05-23T15:02:03;16.40;99.90
4725;DHT22;2376;53.544;10.226;2023-05-23T15:04:31;16.20;99.90
4725;DHT22;2376;53.544;10.226;2023-05-23T15:06:58;16.30;99.90
4725;DHT22;2376;53.544;10.226;2023-05-23T15:09:25;16.20;99.90
4725;DHT22;2376;53.544;10.226;2023-05-23T15:11:52;16.00;99.90
4725;DHT22;2376;53.544;10.226;2023-05-23T15:14:19;15.60;99.90
4725;DHT22;2376;53.544;10.226;2023-05-23T15:16:46;15.20;99.90
4725;DHT22;2376;53.544;10.226;2023-05-23T15:19:14;15.30;99.90
4725;DHT22;2376;53.544;10.226;2023-05-23T15:21:42;15.30;99.90
4725;DHT22;2376;53.544;10.226;2023-05-23T15:24:09;15.40;99.90
4725;DHT22;2376;53.544;10.226;2023-05-23T15:26:36;15.50;99.90
4725;DHT22;2376;53.544;10.226;2023-05-23T15:29:03;15.60;99.90
4725;DHT22;2376;53.544;10.226;2023-05-23T15:31:30;15.40;99.90
4725;DHT22;2376;53.544;10.226;2023-05-23T15:33:56;15.50;99.90
4725;DHT22;2376;53.544;10.226;2023-05-23T15:36:23;15.50;99.90
4725;DHT22;2376;53.544;10.226;2023-05-23T15:38:51;15.60;99.90
4725;DHT22;2376;53.544;10.226;2023-05-23T15:41:18;15.60;99.90
4725;DHT22;2376;53.544;10.226;2023-05-23T15:43:44;15.60;99.90
4725;DHT22;2376;53.544;10.226;2023-05-23T15:46:11;15.50;99.90
4725;DHT22;2376;53.544;10.226;2023-05-23T15:48:38;15.60;99.90
4725;DHT22;2376;53.544;10.226;2023-05-23T15:51:04;15.70;99.90